Time;durP1;ratioP1;P1;durP2;ratioP2;P2;SDS_P1;SDS_P2;PMS_P1;PMS_P2;Temp;Humidity;BMP_temperature;BMP_pressure;BME280_temperature;BME280_humidity;BME280_pressure;Samples;Min_cycle;Max_cycle;Signal;HPM_P1;HPM_P2
2022/06/19 00:00:50;;;;;;;;;;;27.50;62.00;;;28.15;41.76;100066.06;5084771;29;20131;-81
2022/06/19 00:03:30;;;;;;;5.50;1.80;;;27.50;62.10;;;28.15;41.59;100058.03;5082454;29;19927;-81
2022/06/19 00:06:02;;;;;;;;;;;27.40;62.20;;;28.07;41.67;100061.09;5079946;29;20048;-80
2022/06/19 00:08:34;;;;;;;9.20;2.35;;;27.40;62.30;;;28.04;41.81;100057.72;5079528;29;19923;-80
2022/06/19 00:11:10;;;;;;;7.22;2.15;;;27.30;62.40;;;28.02;41.84;100054.22;5074025;29;20063;-81
2022/06/19 00:13:44;;;;;;;7.10;2.08;;;27.30;62.40;;;27.97;42.02;100053.56;5082906;29;20056;-79
2022/06/19 00:16:16;;;;;;;9.32;2.83;;;27.20;62.40;;;27.91;42.09;100056.53;5083841;29;20048;-81
2022/06/19 00:18:48;;;;;;;10.95;2.70;;;27.20;62.60;;;27.85;42.29;100049.69;5078928;29;20052;-81
2022/06/19 00:21:20;;;;;;;4.93;2.38;;;27.20;62.60;;;27.80;42.34;100044.56;5084975;29;20112;-81
2022/06/19 00:23:53;;;;;;;10.77;2.42;;;27.10;63.30;;;27.75;42.38;100033.19;5083827;29;20490;-79
2022/06/19 00:26:25;;;;;;;7.22;2.40;;;27.10;62.60;;;27.72;42.40;100028.00;5090042;29;20056;-79
2022/06/19 00:28:58;;;;;;;2.60;1.83;;;27.10;62.60;;;27.72;42.40;100028.00;5083251;29;20048;-81
2022/06/19 00:31:30;;;;;;;6.88;2.25;;;27.00;62.70;;;27.72;42.36;100017.28;5089083;29;20079;-81
2022/06/19 00:34:03;;;;;;;6.78;1.88;;;27.00;62.80;;;27.70;42.57;100011.13;5079431;29;20052;-81
2022/06/19 00:36:35;;;;;;;6.80;2.10;;;27.00;62.90;;;27.66;42.51;100006.84;5085663;29;20058;-81
2022/06/19 00:39:07;;;;;;;6.35;2.10;;;27.00;63.10;;;27.64;42.50;99998.00;5086796;29;20051;-81
2022/06/19 00:41:40;;;;;;;6.18;2.20;;;26.90;63.00;;;27.63;42.58;99996.25;5076349;29;20059;-80
2022/06/19 00:44:16;;;;;;;6.15;2.03;;;26.90;63.00;;;27.62;42.44;99993.66;5079467;29;20056;-81
2022/06/19 00:46:53;;;;;;;6.00;1.83;;;26.90;62.90;;;27.61;42.40;99984.78;5080508;29;20052;-82
2022/06/19 00:49:32;;;;;;;6.65;2.17;;;26.90;62.90;;;27.62;42.30;99983.81;5073353;29;20091;-82
2022/06/19 00:52:11;;;;;;;7.63;2.67;;;26.90;62.80;;;27.60;42.30;99975.00;5074684;29;20057;-82
2022/06/19 00:54:47;;;;;;;6.13;1.90;;;26.90;62.70;;;27.60;42.29;99966.97;5072056;29;20466;-82
2022/06/19 00:57:21;;;;;;;7.20;2.42;;;26.90;62.70;;;27.59;42.22;99973.28;5073242;29;20575;-80
2022/06/19 00:59:59;;;;;;;5.60;2.13;;;26.90;62.80;;;27.58;42.30;99968.84;5072435;29;20056;-81
2022/06/19 01:02:32;;;;;;;5.60;2.22;;;26.90;62.80;;;27.55;42.48;99977.03;5072726;29;20104;-82
2022/06/19 01:05:05;;;;;;;6.63;2.15;;;26.90;63.70;;;27.51;42.37;99980.78;5072285;29;20055;-81
2022/06/19 01:07:39;;;;;;;6.75;2.00;;;26.80;63.10;;;27.49;42.66;99977.31;5072652;29;20070;-79
2022/06/19 01:10:12;;;;;;;4.68;1.95;;;26.80;63.20;;;27.47;42.71;99976.53;5072438;29;20130;-80
2022/06/19 01:12:46;;;;;;;6.03;2.20;;;26.80;63.20;;;27.45;42.68;99973.06;5073199;29;20052;-81
2022/06/19 01:15:24;;;;;;;5.18;1.60;;;26.70;63.20;;;27.43;42.58;99969.59;5071865;29;20055;-80
2022/06/19 01:18:01;;;;;;;5.53;2.08;;;26.70;63.40;;;27.41;43.10;99976.84;5072709;29;20120;-81
2022/06/19 01:20:34;;;;;;;5.88;1.83;;;26.70;63.80;;;27.38;43.48;99979.63;5071900;29;20059;-81
2022/06/19 01:23:14;;;;;;;4.57;1.58;;;26.60;64.10;;;27.30;43.96;99972.84;5072427;29;20056;-82
2022/06/19 01:25:50;;;;;;;4.65;1.80;;;26.60;64.70;;;27.21;44.53;99975.97;5072840;29;20059;-81
2022/06/19 01:31:18;;;;;;;4.35;1.77;;;26.40;65.70;;;26.93;45.43;99978.13;5072132;29;20056;-80
2022/06/19 01:33:56;;;;;;;5.05;2.00;;;26.20;66.10;;;26.79;46.37;99970.72;5072461;29;20140;-81
2022/06/19 01:36:31;;;;;;;5.13;1.92;;;26.10;67.10;;;26.68;46.75;99973.91;5072731;29;20616;-81
2022/06/19 01:39:05;;;;;;;5.40;1.67;;;26.00;67.50;;;26.61;47.74;99968.91;5075194;29;20063;-80
2022/06/19 01:41:38;;;;;;;5.13;1.83;;;25.90;68.30;;;26.54;48.24;99962.06;5072487;29;20495;-82
2022/06/19 01:44:10;;;;;;;3.47;1.70;;;25.80;68.90;;;26.46;48.04;99962.41;5072074;29;20058;-82
2022/06/19 01:46:42;;;;;;;3.53;1.60;;;25.70;68.90;;;26.40;47.91;99955.53;5072459;29;20082;-81
2022/06/19 01:49:15;;;;;;;2.80;1.58;;;25.70;68.90;;;26.33;48.63;99955.81;5072392;29;20052;-81
2022/06/19 01:51:47;;;;;;;3.80;1.75;;;25.60;69.50;;;26.27;49.17;99940.06;5072486;29;20083;-80
2022/06/19 01:54:24;;;;;;;3.70;1.67;;;25.50;70.00;;;26.17;49.66;99932.47;5073686;29;20086;-82
2022/06/19 01:56:59;;;;;;;3.58;1.50;;;25.50;70.60;;;26.08;50.33;99934.63;5081438;29;20048;-82
2022/06/19 01:59:32;;;;;;;;;;;25.40;71.10;;;25.97;50.89;99937.78;5090924;29;20059;-81
2022/06/19 02:02:06;;;;;;;;;;;25.30;71.70;;;25.89;51.02;99932.78;5091399;29;19983;-81
2022/06/19 02:04:38;;;;;;;4.25;1.48;;;25.20;71.90;;;25.81;51.18;99926.00;5088044;29;19928;-81
2022/06/19 02:07:14;;;;;;;4.15;1.42;;;25.10;72.10;;;25.71;51.40;99921.00;5071415;29;20079;-82
2022/06/19 02:09:47;;;;;;;3.72;1.42;;;25.00;72.40;;;25.62;51.46;99918.69;5070749;29;20084;-81
2022/06/19 02:12:22;;;;;;;2.78;1.60;;;24.90;72.50;;;25.56;51.53;99908.31;5070484;29;20052;-80
2022/06/19 02:14:54;;;;;;;7.72;1.67;;;24.90;72.60;;;25.52;51.91;99901.34;5088958;29;20052;-82
2022/06/19 02:17:32;;;;;;;3.90;1.65;;;24.80;73.20;;;25.46;52.54;99904.25;5089577;29;20096;-81
2022/06/19 02:20:07;;;;;;;5.47;1.83;;;24.70;73.60;;;25.38;52.74;99901.91;5089399;29;20139;-80
2022/06/19 02:22:39;;;;;;;3.35;1.63;;;24.70;73.90;;;25.34;53.11;99900.28;5089721;29;20048;-81
2022/06/19 02:25:12;;;;;;;3.05;1.40;;;24.60;74.30;;;25.30;53.42;99887.13;5116384;23;20062;-85
2022/06/19 02:27:45;;;;;;;3.50;1.50;;;24.60;74.60;;;25.24;53.44;99882.06;5111071;29;20052;-84
2022/06/19 02:30:17;;;;;;;3.25;1.40;;;24.50;75.00;;;25.17;53.84;99882.31;5108095;29;20051;-85
2022/06/19 02:32:52;;;;;;;4.88;1.90;;;24.40;75.10;;;25.12;54.44;99873.63;5094339;29;20062;-87
2022/06/19 02:35:26;;;;;;;6.05;1.45;;;24.40;75.80;;;25.06;54.71;99873.84;5092545;29;20054;-85
2022/06/19 02:37:57;;;;;;;4.55;1.80;;;24.30;76.30;;;25.01;55.09;99875.78;5094078;29;20048;-86
2022/06/19 02:40:39;;;;;;;2.55;1.60;;;24.30;76.80;;;24.95;55.15;99861.84;5093394;29;20431;-85
2022/06/19 02:43:21;;;;;;;4.15;1.50;;;24.20;77.00;;;24.90;55.58;99862.00;5093351;29;20052;-83
2022/06/19 02:45:53;;;;;;;4.43;1.65;;;24.20;77.30;;;24.85;55.07;99880.00;5093427;29;20059;-83
2022/06/19 02:48:29;;;;;;;3.30;1.65;;;24.10;77.50;;;24.80;55.11;99863.31;5104017;29;20036;-83
2022/06/19 02:51:04;;;;;;;2.92;1.60;;;24.10;77.30;;;24.75;55.68;99851.94;5115957;29;20111;-83
2022/06/19 02:53:36;;;;;;;5.95;1.60;;;24.00;77.80;;;24.71;55.67;99850.31;5108159;29;20098;-86
2022/06/19 02:56:08;;;;;;;4.53;1.50;;;24.00;78.00;;;24.69;55.95;99857.50;5104117;29;20154;-85
2022/06/19 02:58:41;;;;;;;2.38;1.58;;;24.00;78.40;;;24.63;56.00;99858.59;5100696;29;20047;-83
2022/06/19 03:01:15;;;;;;;5.15;2.08;;;23.90;78.50;;;24.53;55.56;99871.41;5103065;29;20048;-83
2022/06/19 03:03:47;;;;;;;3.03;1.83;;;23.80;78.00;;;24.42;55.72;99873.59;5090647;29;20052;-83
2022/06/19 03:06:19;;;;;;;7.35;1.98;;;23.80;78.20;;;24.38;56.42;99879.06;5090289;29;20522;-83
2022/06/19 03:08:51;;;;;;;4.30;1.55;;;23.70;79.00;;;24.34;56.82;99873.88;5090599;29;20248;-83
2022/06/19 03:11:23;;;;;;;3.97;2.03;;;23.70;79.50;;;24.31;57.41;99873.94;5090232;29;20052;-84
2022/06/19 03:13:56;;;;;;;5.43;1.80;;;23.60;80.20;;;24.28;57.69;99883.84;5090182;29;20054;-83
2022/06/19 03:16:28;;;;;;;2.50;1.58;;;23.60;80.50;;;24.28;57.93;99883.84;5090494;29;20055;-84
2022/06/19 03:19:00;;;;;;;3.35;1.67;;;23.60;81.00;;;24.23;57.96;99883.13;5090790;29;20503;-83
2022/06/19 03:21:32;;;;;;;4.60;1.70;;;23.50;81.20;;;24.21;58.33;99877.00;5090829;29;20074;-84
2022/06/19 03:24:05;;;;;;;6.50;2.33;;;23.50;81.60;;;24.15;57.61;99871.91;5090307;29;20047;-84
2022/06/19 03:26:38;;;;;;;6.15;1.90;;;23.50;81.10;;;24.18;57.15;99872.63;5093272;29;20075;-83
2022/06/19 03:29:11;;;;;;;5.55;2.00;;;23.50;81.00;;;24.22;57.72;99881.41;5094795;29;20167;-85
2022/06/19 03:31:43;;;;;;;6.22;1.92;;;23.50;81.50;;;24.22;57.75;99892.06;5095227;29;20063;-83
2022/06/19 03:34:15;;;;;;;4.28;1.92;;;23.50;81.80;;;24.21;58.34;99911.63;5094415;29;20052;-84
2022/06/19 03:36:47;;;;;;;5.57;1.90;;;23.50;82.30;;;24.17;57.65;99924.16;5094041;29;20055;-83
2022/06/19 03:39:20;;;;;;;3.78;1.70;;;23.50;82.10;;;24.13;58.07;99950.97;5094363;29;20059;-83
2022/06/19 03:41:52;;;;;;;7.05;2.40;;;23.50;82.40;;;24.05;57.27;99941.41;5095443;29;20067;-83
2022/06/19 03:44:25;;;;;;;5.85;2.38;;;23.40;81.60;;;24.11;56.32;99940.34;5095355;29;20556;-84
2022/06/19 03:46:57;;;;;;;7.43;2.67;;;23.50;80.70;;;24.18;55.90;99963.16;5094722;29;20044;-84
2022/06/19 03:49:29;;;;;;;6.85;2.30;;;23.60;80.20;;;24.29;55.62;99954.81;5095730;29;20052;-83
2022/06/19 03:52:01;;;;;;;6.78;2.33;;;23.70;80.20;;;24.39;55.80;99985.59;5096317;29;20063;-84
2022/06/19 03:54:34;;;;;;;8.27;3.08;;;23.80;80.40;;;24.43;56.37;100021.81;5098200;29;20052;-84
2022/06/19 03:57:06;;;;;;;9.95;3.20;;;23.80;80.70;;;24.40;56.72;100000.63;5098850;29;20048;-83
2022/06/19 03:59:40;;;;;;;11.25;4.03;;;23.80;81.30;;;24.39;57.92;100036.19;5101252;29;20079;-83
2022/06/19 04:02:12;;;;;;;11.30;4.10;;;23.80;82.40;;;24.32;59.76;100042.56;5095624;29;20123;-83
2022/06/19 04:04:44;;;;;;;8.93;3.60;;;23.80;84.10;;;24.24;61.69;100049.97;5095966;29;20052;-84
2022/06/19 04:07:16;;;;;;;6.85;3.25;;;23.80;86.30;;;24.12;63.32;100069.00;5094194;29;20403;-84
2022/06/19 04:09:48;;;;;;;5.75;3.05;;;23.60;88.20;;;23.96;64.71;100079.28;5096048;29;20048;-83
2022/06/19 04:12:20;;;;;;;4.32;2.83;;;23.50;89.70;;;23.76;64.90;100066.59;5096832;29;20138;-83
2022/06/19 04:14:54;;;;;;;5.28;2.50;;;23.40;90.20;;;23.54;65.35;100083.19;5096925;29;20156;-84
2022/06/19 04:17:26;;;;;;;3.72;2.60;;;23.20;90.60;;;23.33;65.11;100094.41;5104063;29;20104;-85
2022/06/19 04:19:58;;;;;;;4.43;1.90;;;23.00;90.80;;;23.18;65.17;100116.13;5102852;29;20058;-83
2022/06/19 04:22:30;;;;;;;4.55;2.03;;;22.80;91.00;;;22.98;65.33;100120.19;5119297;29;20143;-81
2022/06/19 04:25:02;;;;;;;5.00;2.20;;;22.70;91.20;;;22.87;65.21;100108.97;5112595;29;20193;-82
2022/06/19 04:27:37;;;;;;;3.65;2.10;;;22.50;91.40;;;22.66;65.35;100118.34;5113399;29;20056;-84
2022/06/19 04:30:12;;;;;;;3.70;1.55;;;22.30;91.60;;;22.51;65.62;100131.16;5114154;29;20130;-84
2022/06/19 04:32:44;;;;;;;6.10;2.78;;;22.20;91.90;;;22.36;65.66;100140.34;5114002;29;20051;-83
2022/06/19 04:35:16;;;;;;;3.92;1.83;;;22.00;92.10;;;22.26;65.45;100139.69;5112979;29;20051;-81
2022/06/19 04:37:48;;;;;;;4.47;1.70;;;21.90;92.30;;;22.13;65.40;100149.72;5112931;29;20066;-84
2022/06/19 04:40:20;;;;;;;6.20;1.90;;;21.80;92.30;;;21.94;65.65;100172.22;5114013;29;20058;-83
2022/06/19 04:42:52;;;;;;;4.07;1.92;;;21.70;92.50;;;21.87;65.84;100152.91;5112732;29;20056;-81
2022/06/19 04:45:26;;;;;;;4.43;1.75;;;21.60;92.80;;;21.88;65.84;100162.63;5113007;29;20142;-83
2022/06/19 04:47:58;;;;;;;3.80;1.50;;;21.50;93.10;;;21.95;65.92;100166.00;5113526;29;20395;-83
2022/06/19 04:50:30;;;;;;;5.50;1.75;;;21.50;93.40;;;22.01;64.88;100144.66;5113125;29;20082;-83
2022/06/19 04:53:03;;;;;;;4.85;1.83;;;21.60;93.10;;;22.03;63.81;100168.50;5113403;29;20055;-83
2022/06/19 04:55:35;;;;;;;7.88;2.08;;;21.60;92.60;;;21.92;63.22;100166.97;5113218;29;20425;-83
2022/06/19 04:58:08;;;;;;;5.80;1.65;;;21.50;92.30;;;21.88;64.09;100153.78;5113226;29;20134;-84
2022/06/19 05:00:42;;;;;;;3.10;1.52;;;21.50;92.60;;;21.87;62.99;100179.44;5113025;29;20142;-83
2022/06/19 05:03:14;;;;;;;7.07;1.70;;;21.50;92.20;;;21.84;62.46;100171.56;5112840;29;20520;-83
2022/06/19 05:05:47;;;;;;;4.13;1.23;;;21.40;92.00;;;21.95;62.56;100172.19;5110719;29;20059;-88
2022/06/19 05:08:19;;;;;;;9.57;1.75;;;21.50;92.10;;;22.13;61.45;100168.28;5109786;29;20066;-87
2022/06/19 05:10:51;;;;;;;6.90;1.65;;;21.60;91.80;;;22.19;60.72;100167.28;5110563;29;20054;-86
2022/06/19 05:13:25;;;;;;;5.00;1.50;;;21.60;91.40;;;22.15;60.70;100178.88;5110310;29;20565;-87
2022/06/19 05:16:09;;;;;;;3.33;1.30;;;21.60;91.10;;;22.17;60.78;100187.69;5109843;29;20139;-87
2022/06/19 05:18:42;;;;;;;3.10;1.33;;;21.70;91.10;;;22.26;60.04;100171.53;5110989;29;20047;-87
2022/06/19 05:21:16;;;;;;;3.67;1.20;;;21.80;90.80;;;22.40;59.59;100180.06;5111803;29;20050;-87
2022/06/19 05:23:50;;;;;;;3.50;1.42;;;21.90;90.60;;;22.54;58.81;100173.56;5111521;29;20048;-86
2022/06/19 05:26:26;;;;;;;3.95;1.25;;;22.00;90.30;;;22.54;58.06;100192.13;5112030;29;20059;-87
2022/06/19 05:28:59;;;;;;;4.20;1.30;;;22.00;89.50;;;22.50;58.17;100203.75;5111574;29;20044;-87
2022/06/19 05:31:34;;;;;;;4.78;1.23;;;22.00;89.60;;;22.47;58.29;100202.91;5111993;29;20044;-86
2022/06/19 05:34:06;;;;;;;3.33;1.30;;;22.00;89.60;;;22.46;57.73;100181.69;5115300;29;20413;-87
2022/06/19 05:36:38;;;;;;;5.32;1.45;;;22.00;88.90;;;22.50;57.74;100171.91;5113838;29;20110;-86
2022/06/19 05:39:10;;;;;;;3.78;1.30;;;22.00;88.80;;;22.60;57.36;100176.06;5113876;29;20058;-85
2022/06/19 05:41:42;;;;;;;5.32;1.27;;;22.00;88.50;;;22.70;56.61;100189.09;5112605;29;20055;-87
2022/06/19 05:44:15;;;;;;;6.97;1.25;;;22.10;88.40;;;22.70;56.57;100206.81;5111302;29;20054;-87
2022/06/19 05:46:50;;;;;;;7.28;1.40;;;22.10;87.50;;;22.61;56.08;100205.22;5110729;29;20429;-87
2022/06/19 05:49:22;;;;;;;4.70;1.13;;;22.10;86.80;;;22.64;55.93;100188.38;5108617;29;20433;-87
2022/06/19 05:51:54;;;;;;;6.43;1.60;;;22.10;86.80;;;22.63;55.47;100190.16;5108802;29;20044;-87
2022/06/19 05:54:26;;;;;;;4.32;1.20;;;22.10;86.30;;;22.57;55.26;100200.06;5108531;29;20056;-88
2022/06/19 05:56:58;;;;;;;5.00;1.70;;;22.00;85.60;;;22.57;54.92;100190.28;5109004;29;20044;-87
2022/06/19 05:59:30;;;;;;;4.85;1.38;;;22.00;85.30;;;22.53;54.85;100185.09;5109337;29;20056;-81
2022/06/19 06:02:04;;;;;;;3.97;1.48;;;22.00;85.10;;;22.59;54.74;100185.81;5111255;29;20074;-81
2022/06/19 06:04:36;;;;;;;3.97;1.38;;;22.00;84.90;;;22.70;54.23;100177.59;5111036;29;20470;-81
2022/06/19 06:07:10;;;;;;;3.13;1.15;;;22.10;84.70;;;22.84;53.95;100175.47;5101233;29;20048;-81
2022/06/19 06:09:42;;;;;;;;;;;22.20;84.20;;;22.98;53.41;100172.47;5111182;29;20057;-81
2022/06/19 06:12:14;;;;;;;3.75;1.05;;;22.30;83.70;;;23.08;52.70;100167.78;5110231;29;19929;-82
2022/06/19 06:14:46;;;;;;;4.53;1.10;;;22.40;83.00;;;23.06;52.38;100172.28;5110700;29;20052;-82
2022/06/19 06:17:21;;;;;;;5.03;1.23;;;22.40;82.30;;;22.97;52.29;100182.25;5110681;29;20414;-81
2022/06/19 06:19:53;;;;;;;3.05;0.98;;;22.40;82.00;;;23.05;52.57;100179.38;5110268;29;20075;-81
2022/06/19 06:22:25;;;;;;;4.63;1.48;;;22.40;82.30;;;23.21;52.29;100183.38;5109582;29;20048;-81
2022/06/19 06:24:57;;;;;;;4.07;1.60;;;22.50;82.10;;;23.31;51.56;100191.97;5109161;29;20142;-82
2022/06/19 06:27:29;;;;;;;5.85;1.40;;;22.60;81.90;;;23.31;51.45;100186.66;5109006;29;20115;-81
2022/06/19 06:30:01;;;;;;;4.32;1.58;;;22.60;80.90;;;23.20;51.41;100186.06;5108906;29;20058;-82
2022/06/19 06:32:35;;;;;;;3.95;1.13;;;22.50;80.60;;;23.12;51.44;100190.72;5109241;29;20066;-81
2022/06/19 06:35:08;;;;;;;5.03;1.40;;;22.50;81.20;;;23.08;51.22;100186.38;5109643;29;20437;-83
2022/06/19 06:37:40;;;;;;;7.95;1.55;;;22.40;80.40;;;23.04;51.33;100167.00;5110266;29;20138;-82
2022/06/19 06:40:13;;;;;;;3.88;1.20;;;22.40;80.40;;;23.02;51.51;100196.28;5109793;29;20051;-82
2022/06/19 06:42:48;;;;;;;4.72;1.20;;;22.40;80.60;;;23.03;51.90;100213.09;5110495;29;20058;-82
2022/06/19 06:45:21;;;;;;;3.60;1.30;;;22.40;81.00;;;23.08;51.91;100208.53;5110362;29;20705;-82
2022/06/19 06:47:54;;;;;;;2.78;1.08;;;22.40;81.00;;;23.17;51.81;100202.13;5110231;29;20055;-83
2022/06/19 06:50:26;;;;;;;4.18;1.10;;;22.50;81.00;;;23.31;51.48;100223.88;5106284;29;20445;-77
2022/06/19 06:52:58;;;;;;;3.67;1.13;;;22.60;80.90;;;23.62;50.82;100209.78;5105156;29;20062;-78
2022/06/19 06:55:30;;;;;;;8.00;1.60;;;22.80;80.40;;;23.95;49.84;100200.84;5105597;29;20059;-78
2022/06/19 06:58:02;;;;;;;6.60;1.70;;;23.10;79.30;;;24.18;48.79;100217.91;5108919;29;20062;-80
2022/06/19 07:00:35;;;;;;;4.93;1.60;;;23.30;78.00;;;24.39;48.38;100214.63;5114906;29;20063;-79
2022/06/19 07:03:08;;;;;;;6.82;1.50;;;23.50;77.30;;;24.59;47.92;100225.53;5111480;29;20048;-78
2022/06/19 07:05:40;;;;;;;4.68;1.20;;;23.70;76.70;;;24.79;47.38;100226.69;5110799;29;20063;-80
2022/06/19 07:08:12;;;;;;;6.97;1.83;;;23.90;76.20;;;24.95;47.01;100237.69;5113373;29;20048;-82
2022/06/19 07:10:44;;;;;;;7.22;1.50;;;24.00;75.90;;;25.11;47.53;100255.84;5113799;29;20060;-82
2022/06/19 07:13:16;;;;;;;4.65;1.25;;;24.10;76.00;;;25.20;47.19;100249.31;5113623;29;20052;-81
2022/06/19 07:15:48;;;;;;;5.88;1.55;;;24.30;75.70;;;25.11;47.39;100255.84;5112334;29;20048;-90
2022/06/19 07:18:21;;;;;;;6.13;1.73;;;24.30;75.80;;;24.97;47.69;100258.03;5112356;29;20055;-84
2022/06/19 07:20:53;;;;;;;5.70;1.70;;;24.10;75.90;;;24.88;47.31;100271.69;5114603;29;20044;-85
2022/06/19 07:23:25;;;;;;;6.65;1.65;;;24.10;75.50;;;24.77;47.59;100287.13;5114581;29;20051;-84
2022/06/19 07:25:57;;;;;;;4.65;1.15;;;24.00;75.30;;;24.71;47.87;100292.66;5113655;29;20047;-86
2022/06/19 07:28:29;;;;;;;3.67;1.00;;;23.90;75.40;;;24.70;48.25;100320.25;5111281;29;20425;-84
2022/06/19 07:31:01;;;;;;;3.45;1.15;;;23.90;75.90;;;24.69;48.48;100363.81;5114155;29;20051;-84
2022/06/19 07:33:35;;;;;;;3.90;1.23;;;23.90;76.20;;;24.64;48.70;100391.44;5114734;29;20052;-85
2022/06/19 07:36:13;;;;;;;4.22;1.58;;;23.90;76.60;;;24.75;48.68;100395.59;5115191;29;20549;-85
2022/06/19 07:38:45;;;;;;;7.10;1.70;;;23.90;76.90;;;24.74;48.50;100396.53;5114710;29;20139;-85
2022/06/19 07:41:17;;;;;;;5.18;1.70;;;23.90;76.70;;;24.79;48.61;100431.91;5114629;29;20043;-86
2022/06/19 07:43:51;;;;;;;5.57;1.63;;;23.90;76.80;;;24.86;48.51;100457.47;5114744;29;20062;-85
2022/06/19 07:46:23;;;;;;;5.63;1.63;;;24.00;76.70;;;24.90;48.18;100400.47;5114589;29;20122;-84
2022/06/19 07:51:46;;;;;;;5.93;1.95;;;23.90;76.40;;;24.64;48.47;100447.41;5111231;29;20073;-86
2022/06/19 07:54:18;;;;;;;8.13;1.80;;;23.80;76.30;;;24.56;48.73;100417.44;5111329;29;20410;-84
2022/06/19 07:56:50;;;;;;;8.95;2.20;;;23.80;76.60;;;24.48;48.64;100411.47;5112865;29;20043;-85
2022/06/19 07:59:22;;;;;;;9.43;2.28;;;23.70;76.70;;;24.51;48.95;100398.06;5101312;29;20055;-88
2022/06/19 08:01:54;;;;;;;7.68;2.33;;;23.70;77.20;;;24.69;49.23;100387.78;5112594;29;20048;-86
2022/06/19 08:04:28;;;;;;;4.63;1.90;;;23.80;77.70;;;24.96;48.82;100362.94;5114515;29;20052;-85
2022/06/19 08:07:00;;;;;;;6.65;2.10;;;24.00;77.40;;;25.28;48.31;100382.44;5116553;29;20070;-85
2022/06/19 08:09:32;;;;;;;5.28;1.52;;;24.10;77.10;;;25.64;47.20;100383.03;5112709;29;20078;-86
2022/06/19 08:12:05;;;;;;;8.60;1.70;;;24.40;76.40;;;25.90;47.01;100363.47;5105934;29;20056;-88
2022/06/19 08:14:37;;;;;;;10.23;2.15;;;24.60;76.00;;;26.13;45.88;100371.53;5101600;29;20051;-87
2022/06/19 08:17:10;;;;;;;10.55;2.25;;;24.90;74.90;;;26.15;45.38;100377.69;5099564;29;20044;-86
2022/06/19 08:19:43;;;;;;;6.30;1.73;;;24.90;73.90;;;26.33;44.71;100388.63;5104787;29;20490;-81
2022/06/19 08:22:15;;;;;;;7.57;1.90;;;25.10;73.40;;;26.78;43.84;100391.41;5114441;29;20058;-83
2022/06/19 08:24:47;;;;;;;10.52;2.30;;;25.20;72.70;;;27.29;42.81;100403.69;5108359;29;20052;-84
2022/06/19 08:27:19;;;;;;;8.13;1.73;;;25.50;72.00;;;27.88;41.00;100402.19;5253583;23;20047;-72
2022/06/19 08:29:51;;;;;;;9.70;2.20;;;25.80;70.60;;;28.11;40.15;100410.09;5091678;29;20055;-72
2022/06/19 08:32:23;;;;;;;6.85;1.92;;;26.00;69.70;;;28.36;39.61;100413.47;5103877;29;20058;-72
2022/06/19 08:34:56;;;;;;;12.38;2.50;;;26.10;69.30;;;28.84;39.15;100428.25;5107375;29;20062;-72
2022/06/19 08:37:28;;;;;;;7.78;2.10;;;26.30;69.00;;;29.45;37.78;100419.97;5098715;29;20052;-69
2022/06/19 08:40:01;;;;;;;9.45;2.38;;;26.60;68.60;;;30.35;35.72;100437.84;5107186;29;20058;-71
2022/06/19 08:42:49;;;;;;;9.23;2.50;;;27.20;65.70;;;30.91;34.52;100456.38;5105705;29;20051;-70
2022/06/19 08:45:39;;;;;;;6.45;1.92;;;27.70;64.60;;;31.36;33.84;100486.19;5088077;29;20143;-70
2022/06/19 08:48:38;;;;;;;7.88;2.38;;;28.10;63.20;;;31.77;32.71;100492.78;5103207;29;20058;-69
2022/06/19 08:51:24;;;;;;;6.72;2.45;;;28.70;61.40;;;31.87;32.12;100487.75;5104384;29;20131;-70
2022/06/19 08:54:28;;;;;;;8.05;2.28;;;28.90;59.60;;;31.96;32.15;100495.31;5095355;29;20140;-70
2022/06/19 08:57:11;;;;;;;8.90;2.60;;;29.10;59.70;;;31.92;31.48;100485.66;5087444;29;20399;-71
2022/06/19 08:59:56;;;;;;;6.70;2.15;;;29.20;58.10;;;31.52;31.98;100481.69;5087202;29;20048;-70
2022/06/19 09:02:47;;;;;;;10.30;2.85;;;29.10;58.20;;;31.03;33.15;100469.13;5091280;29;20056;-71
2022/06/19 09:05:38;;;;;;;8.25;2.42;;;28.90;59.00;;;30.63;33.08;100466.84;5106019;29;20047;-72
2022/06/19 09:08:44;;;;;;;8.02;2.80;;;28.60;59.20;;;30.74;32.86;100451.03;5094973;29;20050;-71
2022/06/19 09:11:48;;;;;;;5.88;2.45;;;28.50;58.50;;;30.45;33.03;100445.38;5082369;29;20138;-70
2022/06/19 09:14:35;;;;;;;7.57;2.08;;;28.50;58.30;;;30.47;32.83;100437.22;5079592;29;20441;-70
2022/06/19 09:17:11;;;;;;;7.00;2.17;;;28.40;58.20;;;30.76;32.40;100438.34;5101858;29;20053;-71
2022/06/19 09:19:51;;;;;;;6.13;1.98;;;28.50;57.90;;;31.17;31.71;100435.19;5106685;29;20055;-71
2022/06/19 09:22:54;;;;;;;5.05;1.90;;;28.70;57.10;;;31.70;31.38;100433.97;5106121;29;20091;-72
2022/06/19 09:25:46;;;;;;;5.30;1.90;;;29.10;57.40;;;31.72;31.77;100445.53;5075158;29;20048;-71
2022/06/19 09:28:27;;;;;;;6.75;2.03;;;29.20;57.20;;;31.21;31.69;100428.66;5086271;29;20048;-71
2022/06/19 09:31:08;;;;;;;5.82;2.42;;;29.10;56.70;;;30.78;32.56;100428.41;5086564;29;20054;-70
2022/06/19 09:33:46;;;;;;;4.07;1.80;;;29.00;57.10;;;30.45;33.39;100440.00;5086701;29;20412;-70
2022/06/19 09:36:27;;;;;;;5.03;2.00;;;28.70;57.50;;;30.21;33.46;100442.16;5074767;29;20135;-70
2022/06/19 09:39:07;;;;;;;4.88;1.83;;;28.60;57.70;;;29.92;33.83;100450.78;5080504;29;20489;-71
2022/06/19 09:41:52;;;;;;;6.55;2.03;;;28.50;57.70;;;29.61;34.24;100452.34;5086654;29;20123;-72
2022/06/19 09:44:34;;;;;;;6.20;1.80;;;28.30;57.60;;;29.55;34.63;100443.72;5086964;29;20052;-71
2022/06/19 09:47:12;;;;;;;6.30;2.03;;;28.20;58.30;;;29.55;34.80;100435.66;5086324;29;20079;-69
2022/06/19 09:49:51;;;;;;;6.93;1.90;;;28.30;58.50;;;29.35;35.14;100429.44;5086265;29;20055;-68
2022/06/19 09:52:29;;;;;;;3.63;1.90;;;28.20;58.50;;;29.12;35.00;100421.59;5086471;29;20058;-71
2022/06/19 09:55:10;;;;;;;6.57;2.08;;;28.10;58.40;;;28.87;35.97;100417.34;5086278;29;20060;-71
2022/06/19 09:57:49;;;;;;;6.10;1.95;;;27.80;58.80;;;28.75;36.49;100438.53;5086015;29;20063;-69
2022/06/19 10:00:25;;;;;;;5.80;1.85;;;27.70;59.30;;;28.73;36.56;100438.59;5086100;29;20056;-71
2022/06/19 10:03:04;;;;;;;6.45;2.00;;;27.60;60.00;;;28.81;36.03;100428.38;5086250;29;20059;-69
2022/06/19 10:05:41;;;;;;;5.40;2.20;;;27.60;59.40;;;28.59;35.89;100433.00;5066728;29;20127;-70
2022/06/19 10:08:19;;;;;;;7.88;2.30;;;27.50;59.10;;;28.28;36.80;100420.06;5066958;29;20092;-71
2022/06/19 10:10:55;;;;;;;6.03;1.95;;;27.30;59.80;;;28.12;37.61;100391.28;5068875;29;20060;-70
2022/06/19 10:13:36;;;;;;;5.40;2.35;;;27.10;60.50;;;28.07;37.98;100376.34;5086380;29;20056;-69
2022/06/19 10:16:24;;;;;;;5.32;2.00;;;27.10;61.00;;;28.18;38.31;100344.59;5085415;29;20413;-69
2022/06/19 10:18:58;;;;;;;5.80;2.40;;;27.10;61.70;;;28.22;37.94;100327.41;5085555;29;20457;-70
2022/06/19 10:24:42;;;;;;;6.05;2.15;;;27.00;60.50;;;27.70;37.83;100238.69;5066367;29;20055;-68
2022/06/19 10:27:24;;;;;;;7.78;2.90;;;26.80;60.70;;;27.47;38.43;100182.63;5066636;29;20542;-70
2022/06/19 10:30:06;;;;;;;6.75;2.15;;;26.60;61.00;;;27.14;39.34;100132.34;5066414;29;20079;-72
2022/06/19 10:32:54;;;;;;;9.77;2.83;;;26.50;61.80;;;26.95;39.84;100126.00;5066165;29;20140;-69
2022/06/19 10:35:33;;;;;;;7.45;2.85;;;26.40;62.30;;;26.75;39.69;100097.47;5073141;29;20079;-71
2022/06/19 10:38:33;;;;;;;7.90;2.55;;;26.20;62.30;;;26.66;40.49;100093.34;5085790;29;20047;-70
2022/06/19 10:42:00;;;;;;;11.13;2.83;;;26.10;62.90;;;26.53;41.12;100065.41;5085491;29;20055;-70
2022/06/19 10:44:17;;;;;;;6.05;2.55;;;26.00;63.50;;;26.21;41.61;100097.00;5073656;29;20506;-68
2022/06/19 10:47:03;;;;;;;9.98;3.13;;;25.80;64.10;;;25.97;42.62;100127.34;5066162;29;20466;-70
2022/06/19 10:49:46;;;;;;;8.95;3.22;;;25.60;65.00;;;25.76;43.53;100115.72;5066558;29;20060;-68
2022/06/19 10:52:24;;;;;;;7.63;2.85;;;25.40;66.00;;;25.75;43.85;100119.28;5066124;29;20052;-70
2022/06/19 10:55:08;;;;;;;8.88;2.55;;;25.30;66.30;;;25.90;43.67;100107.16;5065824;29;20052;-69
2022/06/19 10:58:02;;;;;;;7.47;2.80;;;25.40;66.60;;;26.07;43.74;100134.06;5066202;29;20475;-69